Terminal Aerodrome Forecast
Issued by NWS Atlanta, GA

Home | Current Version | Previous Version | Text Only | Print | Product List | Glossary On
Versions: 1 2 3 4 5 6 7 8 9 10 11 12 13 14 15
000
FTUS42 KFFC 021730
TAFMCN
TAF
KMCN 021730Z 0218/0318 30005KT P6SM FEW045
      TEMPO 0218/0220 BKN015
     FM022000 30004KT P6SM OVC025
     FM030600 00000KT 3SM BR OVC012
     FM030900 09003KT 2SM BR OVC007=

USA.gov is the U.S. government's official web portal to all federal, state and local government web resources and services.